Bloomer, Wisconsin
Current Conditions -  °F | °C
As of 2:55 PM on Friday 19 Dec 2014 (Local Time) from KY23 Reporting Station
Overcast Overcast  
Wind Chill: 18°   Ceiling: 2300
Heat Index: 26°   Visibility: 10mi
Dew Point: 21°   Wind: 8mph
Humidity: 81%   Direction: 130°SE
Pressure: 30.22"   Gusts: NA
Location:  45.1°N, 91.49°W
Report Text: KY23 192055Z AUTO 13007KT 10SM SCT016 OVC023 M03/M06 A3022 RMK AO2 T10331062
Loading
Personal Weather Stations






























Interactive Weather Map New forecast layout! Learn more

10-Day Weather Forecast

Advertisements
Track Severe Weather on mobile